Time;durP1;ratioP1;P1;durP2;ratioP2;P2;SDS_P1;SDS_P2;PMS_P1;PMS_P2;Temp;Humidity;BMP_temperature;BMP_pressure;BME280_temperature;BME280_humidity;BME280_pressure;Samples;Min_cycle;Max_cycle;Signal;HPM_P1;HPM_P2
2023/10/12 00:01:25;;;;;;;;;;;21.40;66.90;;;;;;10152746;28;92412;-73
2023/10/12 00:06:30;;;;;;;;;;;21.40;66.70;;;;;;10156754;28;94017;-73
2023/10/12 00:11:37;;;;;;;;;;;21.40;66.70;;;;;;10149406;28;94596;-73
2023/10/12 00:16:42;;;;;;;;;;;21.40;66.70;;;;;;10145422;28;96183;-73
2023/10/12 00:21:44;;;;;;;;;;;21.40;66.60;;;;;;10144234;28;93456;-73
2023/10/12 00:26:46;;;;;;;;;;;21.40;66.50;;;;;;10129566;28;94837;-73
2023/10/12 00:31:49;;;;;;;;;;;21.40;66.50;;;;;;10157071;28;94195;-73
2023/10/12 00:36:57;;;;;;;;;;;21.40;66.50;;;;;;10161194;28;94430;-73
2023/10/12 00:42:00;;;;;;;;;;;21.40;66.40;;;;;;10138952;28;94439;-73
2023/10/12 00:47:12;;;;;;;;;;;21.40;66.40;;;;;;10143742;28;94259;-73
2023/10/12 00:52:23;;;;;;;;;;;21.40;66.30;;;;;;10136297;28;93799;-73
2023/10/12 00:57:25;;;;;;;;;;;21.40;66.30;;;;;;10143707;28;93945;-73
2023/10/12 01:02:33;;;;;;;;;;;21.40;66.10;;;;;;10495467;22;93814;-53
2023/10/12 01:07:37;;;;;;;;;;;21.40;66.10;;;;;;10087263;28;96626;-67
2023/10/12 01:12:39;;;;;;;;;;;21.40;65.90;;;;;;10116789;28;94547;-66
2023/10/12 01:17:41;;;;;;;;;;;21.40;66.00;;;;;;10127827;28;93604;-67
2023/10/12 01:22:42;;;;;;;;;;;21.40;65.90;;;;;;10126627;28;94805;-67
2023/10/12 01:27:44;;;;;;;;;;;21.40;65.90;;;;;;10127082;28;94912;-67
2023/10/12 01:32:52;;;;;;;;;;;21.40;65.80;;;;;;10111840;28;93916;-66
2023/10/12 01:38:00;;;;;;;;;;;21.40;65.80;;;;;;10122501;28;93497;-67
2023/10/12 01:43:02;;;;;;;;;;;21.40;65.80;;;;;;10119071;28;93798;-67
2023/10/12 01:48:17;;;;;;;;;;;21.30;65.90;;;;;;10121658;28;93540;-67
2023/10/12 01:58:32;;;;;;;;;;;21.40;65.90;;;;;;10112685;28;98056;-68
2023/10/12 02:03:38;;;;;;;;;;;21.30;65.70;;;;;;10117118;28;93410;-67
2023/10/12 02:08:45;;;;;;;;;;;21.30;65.70;;;;;;10112256;28;94585;-67
2023/10/12 02:13:47;;;;;;;;;;;21.30;65.70;;;;;;10122026;28;94182;-67
2023/10/12 02:18:50;;;;;;;;;;;21.30;65.70;;;;;;10117883;28;97438;-67
2023/10/12 02:28:57;;;;;;;;;;;21.20;65.60;;;;;;10125094;28;93761;-67
2023/10/12 02:34:01;;;;;;;;;;;21.30;65.70;;;;;;10121343;28;93451;-68
2023/10/12 02:39:10;;;;;;;;;;;21.20;65.70;;;;;;10125374;28;95498;-67
2023/10/12 02:44:12;;;;;;;;;;;21.20;65.70;;;;;;10120403;28;94512;-67
2023/10/12 02:49:14;;;;;;;;;;;21.20;65.80;;;;;;10121793;28;96819;-67
2023/10/12 02:54:16;;;;;;;;;;;21.20;65.80;;;;;;10123215;28;93299;-67
2023/10/12 02:59:19;;;;;;;;;;;21.20;65.80;;;;;;10111389;28;93786;-67
2023/10/12 03:04:24;;;;;;;;;;;21.20;65.80;;;;;;10118920;28;94047;-67
2023/10/12 03:09:36;;;;;;;;;;;21.20;65.70;;;;;;10121172;28;93982;-67
2023/10/12 03:14:40;;;;;;;;;;;21.20;65.80;;;;;;10124451;28;95684;-67
2023/10/12 03:19:48;;;;;;;;;;;21.10;65.70;;;;;;10120260;28;93400;-68
2023/10/12 03:24:51;;;;;;;;;;;21.10;65.70;;;;;;10125676;28;92505;-67
2023/10/12 03:30:02;;;;;;;;;;;21.10;65.70;;;;;;10121248;28;94441;-66
2023/10/12 03:35:12;;;;;;;;;;;21.20;65.70;;;;;;10115575;28;94346;-66
2023/10/12 03:45:34;;;;;;;;;;;21.10;65.60;;;;;;10122409;28;93521;-67
2023/10/12 03:50:57;;;;;;;;;;;21.20;65.60;;;;;;10111549;28;94222;-67
2023/10/12 03:56:01;;;;;;;;;;;21.20;65.60;;;;;;10122834;28;93052;-67
2023/10/12 04:01:10;;;;;;;;;;;21.20;65.60;;;;;;10122347;28;93478;-67
2023/10/12 04:06:23;;;;;;;;;;;21.20;65.50;;;;;;10133105;28;95171;-67
2023/10/12 04:16:45;;;;;;;;;;;21.20;65.50;;;;;;10116220;28;93714;-67
2023/10/12 04:22:05;;;;;;;;;;;21.20;65.40;;;;;;10137583;28;94915;-67
2023/10/12 04:27:23;;;;;;;;;;;21.20;65.40;;;;;;10118995;28;93204;-67
2023/10/12 04:32:51;;;;;;;;;;;21.20;65.30;;;;;;10113513;28;96402;-67
2023/10/12 04:37:50;;;;;;;;;;;21.20;65.30;;;;;;10121236;28;93471;-67
2023/10/12 04:42:53;;;;;;;;;;;21.20;65.30;;;;;;10119443;28;93484;-68
2023/10/12 04:48:07;;;;;;;;;;;21.20;65.20;;;;;;10121686;28;94028;-67
2023/10/12 04:53:12;;;;;;;;;;;21.20;65.20;;;;;;10128806;28;94754;-67
2023/10/12 04:58:31;;;;;;;;;;;21.10;65.20;;;;;;10129051;28;93410;-67
2023/10/12 05:03:33;;;;;;;;;;;21.10;65.20;;;;;;10111761;28;94436;-67
2023/10/12 05:08:36;;;;;;;;;;;21.10;65.20;;;;;;10099618;28;93826;-67
2023/10/12 05:13:43;;;;;;;;;;;21.10;65.20;;;;;;10124456;28;93787;-67
2023/10/12 05:18:47;;;;;;;;;;;21.10;65.30;;;;;;10143860;28;94506;-67
2023/10/12 05:23:49;;;;;;;;;;;21.10;65.40;;;;;;10121630;28;96856;-67
2023/10/12 05:35:05;;;;;;;;;;;21.10;65.50;;;;;;10102096;28;95298;-67
2023/10/12 05:39:47;;;;;;;;;;;21.10;65.40;;;;;;10118501;28;94650;-66
2023/10/12 05:44:50;;;;;;;;;;;21.10;65.60;;;;;;10127752;28;94477;-67
2023/10/12 05:49:52;;;;;;;;;;;21.20;65.80;;;;;;10124163;28;94473;-67
2023/10/12 05:54:57;;;;;;;;;;;21.20;66.10;;;;;;10125581;28;94579;-69
2023/10/12 06:00:00;;;;;;;;;;;21.20;66.80;;;;;;10133946;28;93874;-69
2023/10/12 06:05:05;;;;;;;;;;;21.20;66.40;;;;;;10118947;28;93446;-68
2023/10/12 06:10:13;;;;;;;;;;;21.20;67.10;;;;;;10117131;28;94782;-67
2023/10/12 06:15:22;;;;;;;;;;;21.20;67.30;;;;;;10119775;28;96827;-67
2023/10/12 06:20:40;;;;;;;;;;;21.20;67.40;;;;;;10119617;28;94591;-68
2023/10/12 06:25:43;;;;;;;;;;;21.20;67.80;;;;;;10107187;28;94507;-68
2023/10/12 06:31:07;;;;;;;;;;;21.20;67.70;;;;;;10119064;28;95093;-68
2023/10/12 06:36:16;;;;;;;;;;;21.30;67.90;;;;;;10125307;28;97886;-69
2023/10/12 06:46:43;;;;;;;;;;;21.30;68.10;;;;;;10115717;28;95398;-68
2023/10/12 06:51:53;;;;;;;;;;;21.30;67.60;;;;;;10122965;28;92681;-68
2023/10/12 06:57:12;;;;;;;;;;;21.30;67.50;;;;;;10117002;28;93502;-68
2023/10/12 07:02:20;;;;;;;;;;;21.30;67.40;;;;;;10109416;28;93956;-68
2023/10/12 07:07:30;;;;;;;;;;;21.20;67.40;;;;;;10120885;28;96305;-68
2023/10/12 07:12:33;;;;;;;;;;;21.20;67.30;;;;;;10123478;28;94538;-68
2023/10/12 07:17:35;;;;;;;;;;;21.20;67.20;;;;;;10120815;28;94446;-68
2023/10/12 07:22:38;;;;;;;;;;;21.20;67.20;;;;;;10099432;28;93545;-68
2023/10/12 07:27:51;;;;;;;;;;;21.20;67.10;;;;;;10139104;28;94439;-68
2023/10/12 07:32:56;;;;;;;;;;;21.20;67.00;;;;;;10117320;28;94812;-68
2023/10/12 07:37:59;;;;;;;;;;;21.20;67.00;;;;;;10101017;28;93567;-67
2023/10/12 07:43:06;;;;;;;;;;;21.20;66.90;;;;;;10120499;28;93636;-68
2023/10/12 07:48:09;;;;;;;;;;;21.20;66.80;;;;;;10114010;28;93155;-68
2023/10/12 07:53:22;;;;;;;;;;;21.20;66.80;;;;;;10123080;28;94039;-68
2023/10/12 07:58:29;;;;;;;;;;;21.20;66.80;;;;;;10120109;28;95844;-67
2023/10/12 08:03:39;;;;;;;;;;;21.20;66.80;;;;;;10119629;28;93442;-68
2023/10/12 08:08:41;;;;;;;;;;;21.20;66.80;;;;;;10121030;28;94120;-68
2023/10/12 08:13:54;;;;;;;;;;;21.10;66.70;;;;;;10129532;28;92985;-67
2023/10/12 08:24:09;;;;;;;;;;;21.10;66.70;;;;;;10120907;28;94626;-68
2023/10/12 08:39:50;;;;;;;;;;;21.00;66.70;;;;;;10121270;28;93424;-67
2023/10/12 08:44:59;;;;;;;;;;;21.00;66.70;;;;;;10110327;28;94778;-68
2023/10/12 08:50:04;;;;;;;;;;;21.00;66.70;;;;;;10117995;28;96561;-68
2023/10/12 08:55:13;;;;;;;;;;;21.00;66.60;;;;;;10098132;28;93419;-68
2023/10/12 09:05:35;;;;;;;;;;;21.00;66.70;;;;;;10114285;28;96163;-68
2023/10/12 09:10:51;;;;;;;;;;;21.00;66.70;;;;;;10120563;28;93531;-68
2023/10/12 09:15:57;;;;;;;;;;;21.00;66.60;;;;;;10120020;28;94554;-68
2023/10/12 09:31:16;;;;;;;;;;;20.90;66.60;;;;;;10121800;28;93470;-68
2023/10/12 09:36:19;;;;;;;;;;;20.90;66.60;;;;;;10122437;28;96969;-68
2023/10/12 09:41:33;;;;;;;;;;;20.90;66.60;;;;;;10118640;28;95795;-68
2023/10/12 09:46:35;;;;;;;;;;;20.90;66.60;;;;;;10118897;28;93433;-68
2023/10/12 09:51:45;;;;;;;;;;;20.90;66.60;;;;;;10127126;28;93988;-67
2023/10/12 09:56:57;;;;;;;;;;;21.00;66.60;;;;;;10130700;28;94420;-68
2023/10/12 10:02:02;;;;;;;;;;;20.90;66.60;;;;;;10122723;28;95182;-68
2023/10/12 10:07:17;;;;;;;;;;;20.90;66.60;;;;;;10127438;28;94470;-67
2023/10/12 10:12:22;;;;;;;;;;;20.90;66.60;;;;;;10125084;28;95884;-68
2023/10/12 10:17:24;;;;;;;;;;;20.90;66.60;;;;;;10124539;28;92921;-68
2023/10/12 10:22:31;;;;;;;;;;;20.90;66.50;;;;;;10137681;28;95489;-68
2023/10/12 10:27:36;;;;;;;;;;;20.90;66.50;;;;;;10121238;28;93472;-68
2023/10/12 10:32:39;;;;;;;;;;;20.90;66.40;;;;;;10142151;28;97865;-68
2023/10/12 10:37:57;;;;;;;;;;;20.90;66.40;;;;;;10135729;28;94342;-68
2023/10/12 10:43:05;;;;;;;;;;;20.90;66.30;;;;;;10125176;28;94116;-68
2023/10/12 10:48:07;;;;;;;;;;;21.00;66.30;;;;;;10122320;28;92669;-68
2023/10/12 10:53:15;;;;;;;;;;;21.00;66.30;;;;;;10125413;28;94398;-68
2023/10/12 10:58:20;;;;;;;;;;;20.90;66.20;;;;;;10123451;28;93476;-68
2023/10/12 11:03:26;;;;;;;;;;;21.00;66.30;;;;;;10127817;28;95331;-68
2023/10/12 11:08:31;;;;;;;;;;;20.90;66.20;;;;;;10125974;28;92642;-68
2023/10/12 11:13:38;;;;;;;;;;;20.90;66.20;;;;;;10131039;28;93858;-68
2023/10/12 11:18:42;;;;;;;;;;;20.90;66.20;;;;;;10125663;28;94643;-68
2023/10/12 11:23:50;;;;;;;;;;;20.90;66.20;;;;;;10116446;28;117091;-68
2023/10/12 11:29:06;;;;;;;;;;;20.90;66.20;;;;;;10117905;28;93438;-68
2023/10/12 11:34:12;;;;;;;;;;;20.90;66.30;;;;;;10123985;28;94396;-67
2023/10/12 11:39:17;;;;;;;;;;;20.90;66.30;;;;;;10123826;28;94528;-68
2023/10/12 11:44:31;;;;;;;;;;;20.80;66.20;;;;;;10124890;28;93828;-68
2023/10/12 11:49:55;;;;;;;;;;;20.80;66.20;;;;;;10123823;28;93750;-69
2023/10/12 11:55:18;;;;;;;;;;;20.80;66.30;;;;;;10115937;28;94426;-68
2023/10/12 12:00:21;;;;;;;;;;;20.80;66.30;;;;;;10123334;28;94899;-68
2023/10/12 12:05:25;;;;;;;;;;;20.80;66.30;;;;;;10119486;28;93856;-68
2023/10/12 12:15:29;;;;;;;;;;;20.80;66.30;;;;;;10117022;28;95944;-68
2023/10/12 12:20:39;;;;;;;;;;;20.80;66.30;;;;;;10120477;28;94378;-68
2023/10/12 12:25:41;;;;;;;;;;;20.70;66.30;;;;;;10122658;28;94467;-68
2023/10/12 12:30:46;;;;;;;;;;;20.70;66.40;;;;;;10120787;28;93500;-68
2023/10/12 12:36:00;;;;;;;;;;;20.70;66.40;;;;;;10133786;28;94173;-68
2023/10/12 12:41:05;;;;;;;;;;;20.70;66.30;;;;;;10121117;28;94484;-68
2023/10/12 12:46:07;;;;;;;;;;;20.70;66.40;;;;;;10120094;28;93438;-68
2023/10/12 12:51:11;;;;;;;;;;;20.70;66.40;;;;;;10119917;28;94270;-68
2023/10/12 12:56:17;;;;;;;;;;;20.70;66.40;;;;;;10119504;28;94104;-68
2023/10/12 13:01:23;;;;;;;;;;;20.70;66.40;;;;;;10116844;28;93553;-68
2023/10/12 13:06:26;;;;;;;;;;;20.70;66.40;;;;;;10129050;28;97084;-68
2023/10/12 13:11:27;;;;;;;;;;;20.70;66.40;;;;;;10122336;28;93374;-68
2023/10/12 13:16:29;;;;;;;;;;;20.70;66.40;;;;;;10128082;28;93542;-68
2023/10/12 13:21:31;;;;;;;;;;;20.70;66.40;;;;;;10128113;28;93508;-67
2023/10/12 13:26:33;;;;;;;;;;;20.70;66.40;;;;;;10124566;28;94867;-68
2023/10/12 13:31:35;;;;;;;;;;;20.70;66.60;;;;;;10127003;28;94652;-67
2023/10/12 13:36:39;;;;;;;;;;;20.70;66.60;;;;;;10124808;28;93422;-68
2023/10/12 13:41:41;;;;;;;;;;;20.80;66.50;;;;;;10115569;28;93312;-68
2023/10/12 13:46:45;;;;;;;;;;;20.80;66.50;;;;;;10125667;28;94459;-68
2023/10/12 13:51:48;;;;;;;;;;;20.80;67.50;;;;;;10119854;28;94885;-68
2023/10/12 13:56:56;;;;;;;;;;;20.80;66.50;;;;;;10109427;28;95934;-68
2023/10/12 14:01:59;;;;;;;;;;;20.80;66.40;;;;;;10118138;28;94173;-67
2023/10/12 14:07:03;;;;;;;;;;;20.80;66.40;;;;;;10120681;28;93639;-67
2023/10/12 14:12:05;;;;;;;;;;;20.80;66.40;;;;;;10124697;28;93745;-67
2023/10/12 14:17:07;;;;;;;;;;;20.70;66.40;;;;;;10124345;28;94515;-67
2023/10/12 14:22:10;;;;;;;;;;;20.70;66.40;;;;;;10124296;28;94428;-67
2023/10/12 14:27:11;;;;;;;;;;;20.70;66.30;;;;;;10123103;28;95137;-68
2023/10/12 14:32:13;;;;;;;;;;;20.70;66.30;;;;;;10124654;28;94252;-67
2023/10/12 14:37:16;;;;;;;;;;;20.70;66.40;;;;;;10113479;28;94986;-67
2023/10/12 14:42:22;;;;;;;;;;;20.70;66.40;;;;;;10118876;28;92854;-67
2023/10/12 14:47:24;;;;;;;;;;;20.70;66.30;;;;;;10117488;28;95199;-68
2023/10/12 14:52:26;;;;;;;;;;;20.70;66.30;;;;;;10120408;28;94508;-68
2023/10/12 14:57:29;;;;;;;;;;;20.70;66.30;;;;;;10132783;28;93446;-68
2023/10/12 15:02:33;;;;;;;;;;;20.60;66.30;;;;;;10119641;28;94390;-67
2023/10/12 15:07:37;;;;;;;;;;;20.60;66.30;;;;;;10123791;28;93110;-68
2023/10/12 15:12:40;;;;;;;;;;;20.60;66.20;;;;;;10108909;28;94816;-68
2023/10/12 15:17:42;;;;;;;;;;;20.60;66.20;;;;;;10127427;28;93431;-67
2023/10/12 15:22:47;;;;;;;;;;;20.60;66.20;;;;;;10135400;28;93431;-68
2023/10/12 15:27:49;;;;;;;;;;;20.60;66.30;;;;;;10120064;28;94474;-68
2023/10/12 15:32:51;;;;;;;;;;;20.60;66.20;;;;;;10134927;28;93412;-67
2023/10/12 15:37:57;;;;;;;;;;;20.60;66.30;;;;;;10115866;28;96676;-69
2023/10/12 15:43:04;;;;;;;;;;;20.60;66.30;;;;;;10117609;28;94708;-66
2023/10/12 15:48:06;;;;;;;;;;;20.70;66.80;;;;;;10122058;28;93748;-69
2023/10/12 15:53:09;;;;;;;;;;;20.80;67.10;;;;;;10121081;28;93608;-68
2023/10/12 15:58:11;;;;;;;;;;;20.80;67.30;;;;;;10130810;28;94689;-68
2023/10/12 16:03:19;;;;;;;;;;;20.80;68.70;;;;;;10118568;28;94577;-68
2023/10/12 16:08:21;;;;;;;;;;;20.90;70.10;;;;;;10108319;28;93464;-67
2023/10/12 16:13:24;;;;;;;;;;;21.10;70.80;;;;;;10116768;28;93290;-66
2023/10/12 16:18:27;;;;;;;;;;;21.40;71.40;;;;;;10111272;28;93432;-68
2023/10/12 16:23:30;;;;;;;;;;;21.60;70.50;;;;;;10126059;28;94551;-70
2023/10/12 16:28:32;;;;;;;;;;;21.70;70.10;;;;;;10105375;28;96057;-70
2023/10/12 16:33:35;;;;;;;;;;;21.80;70.50;;;;;;10110149;28;94744;-70
2023/10/12 16:38:37;;;;;;;;;;;21.80;70.10;;;;;;10120240;28;93513;-69
2023/10/12 16:43:39;;;;;;;;;;;21.70;70.20;;;;;;10115291;28;94166;-70
2023/10/12 16:48:41;;;;;;;;;;;21.70;70.10;;;;;;10119725;28;93458;-68
2023/10/12 16:53:43;;;;;;;;;;;21.70;70.20;;;;;;10126976;28;94917;-68
2023/10/12 16:58:44;;;;;;;;;;;21.60;70.10;;;;;;10122208;28;93480;-68
2023/10/12 17:03:46;;;;;;;;;;;21.60;70.20;;;;;;10120519;28;93816;-68
2023/10/12 17:08:49;;;;;;;;;;;21.50;70.30;;;;;;10121530;28;94012;-69
2023/10/12 17:13:51;;;;;;;;;;;21.50;70.50;;;;;;10127068;28;94462;-68
2023/10/12 17:18:53;;;;;;;;;;;21.40;70.40;;;;;;10123589;28;95832;-68
2023/10/12 17:23:57;;;;;;;;;;;21.40;70.50;;;;;;10126530;28;93530;-68
2023/10/12 17:29:03;;;;;;;;;;;21.40;70.50;;;;;;10127522;28;94684;-68
2023/10/12 17:34:06;;;;;;;;;;;21.40;70.40;;;;;;10120782;28;94253;-68
2023/10/12 17:39:17;;;;;;;;;;;21.30;70.50;;;;;;10121482;28;93558;-68
2023/10/12 17:44:20;;;;;;;;;;;21.30;70.50;;;;;;10125201;28;93522;-68
2023/10/12 17:49:22;;;;;;;;;;;21.40;70.60;;;;;;10120495;28;93566;-68
2023/10/12 17:54:24;;;;;;;;;;;21.30;70.60;;;;;;10123645;28;93904;-68
2023/10/12 17:59:27;;;;;;;;;;;21.30;70.50;;;;;;10122658;28;94411;-68
2023/10/12 18:04:29;;;;;;;;;;;21.30;70.50;;;;;;10122057;28;94613;-68
2023/10/12 18:09:31;;;;;;;;;;;21.30;70.20;;;;;;10123904;28;96983;-68
2023/10/12 18:14:33;;;;;;;;;;;21.30;70.60;;;;;;10118849;28;93793;-69
2023/10/12 18:19:35;;;;;;;;;;;21.30;70.60;;;;;;10115522;28;93526;-67
2023/10/12 18:24:36;;;;;;;;;;;21.30;70.60;;;;;;10140542;28;95059;-67
2023/10/12 18:29:41;;;;;;;;;;;21.30;70.70;;;;;;10100714;28;94408;-67
2023/10/12 18:34:45;;;;;;;;;;;21.30;70.70;;;;;;10123547;28;94513;-68
2023/10/12 18:39:47;;;;;;;;;;;21.30;70.60;;;;;;10136072;28;94379;-67
2023/10/12 18:44:50;;;;;;;;;;;21.20;70.50;;;;;;10137105;28;94290;-66
2023/10/12 18:49:52;;;;;;;;;;;21.20;70.20;;;;;;10123435;28;97536;-66
2023/10/12 18:55:10;;;;;;;;;;;21.20;70.20;;;;;;10121319;28;94493;-68
2023/10/12 19:00:19;;;;;;;;;;;21.20;70.50;;;;;;10116216;28;97239;-68
2023/10/12 19:05:24;;;;;;;;;;;21.10;70.20;;;;;;10112779;28;93761;-69
2023/10/12 19:10:25;;;;;;;;;;;21.10;70.50;;;;;;10120991;28;94125;-68
2023/10/12 19:15:30;;;;;;;;;;;21.10;70.00;;;;;;10119305;28;94005;-69
2023/10/12 19:20:32;;;;;;;;;;;21.10;70.20;;;;;;10136021;28;93336;-69
2023/10/12 19:25:34;;;;;;;;;;;21.10;70.20;;;;;;10122625;28;93395;-68
2023/10/12 19:30:39;;;;;;;;;;;21.10;70.20;;;;;;10113997;28;93281;-69
2023/10/12 19:35:41;;;;;;;;;;;21.10;70.20;;;;;;10124196;28;92728;-68
2023/10/12 19:40:44;;;;;;;;;;;21.10;70.20;;;;;;10126281;28;94931;-68
2023/10/12 19:45:46;;;;;;;;;;;21.10;70.10;;;;;;10123121;28;93765;-68
2023/10/12 19:50:49;;;;;;;;;;;21.10;70.00;;;;;;10101894;28;96971;-68
2023/10/12 19:55:53;;;;;;;;;;;21.10;70.10;;;;;;10125543;28;93405;-68
2023/10/12 20:00:56;;;;;;;;;;;21.10;70.00;;;;;;10113106;28;94596;-68
2023/10/12 20:06:04;;;;;;;;;;;21.00;70.00;;;;;;10125992;28;93882;-68
2023/10/12 20:11:06;;;;;;;;;;;21.10;70.00;;;;;;10121387;28;93617;-69
2023/10/12 20:16:11;;;;;;;;;;;21.10;70.00;;;;;;10114477;28;94389;-69
2023/10/12 20:21:15;;;;;;;;;;;21.10;70.00;;;;;;10114312;28;95542;-68
2023/10/12 20:26:17;;;;;;;;;;;21.10;69.90;;;;;;10136984;28;91795;-69
2023/10/12 20:31:19;;;;;;;;;;;21.10;69.80;;;;;;10121609;28;94474;-68
2023/10/12 20:36:21;;;;;;;;;;;21.10;69.80;;;;;;10122721;28;94849;-69
2023/10/12 20:41:24;;;;;;;;;;;21.10;69.80;;;;;;10117127;28;96032;-68
2023/10/12 20:46:26;;;;;;;;;;;21.10;69.80;;;;;;10118080;28;93979;-68
2023/10/12 20:51:29;;;;;;;;;;;21.10;70.10;;;;;;10121503;28;94703;-68
2023/10/12 20:56:36;;;;;;;;;;;21.10;70.20;;;;;;10113844;28;94538;-68
2023/10/12 21:01:48;;;;;;;;;;;21.10;70.20;;;;;;10118980;28;93890;-69
2023/10/12 21:06:51;;;;;;;;;;;21.10;70.20;;;;;;10119070;28;93431;-68
2023/10/12 21:11:57;;;;;;;;;;;21.10;69.80;;;;;;10134519;28;94529;-69
2023/10/12 21:17:04;;;;;;;;;;;21.10;69.20;;;;;;10116496;28;93869;-68
2023/10/12 21:22:07;;;;;;;;;;;21.10;68.50;;;;;;10119115;28;93447;-69
2023/10/12 21:27:09;;;;;;;;;;;21.10;67.90;;;;;;10119703;28;94724;-68
2023/10/12 21:32:26;;;;;;;;;;;21.10;67.40;;;;;;10112321;28;96289;-68
2023/10/12 21:37:38;;;;;;;;;;;21.10;66.90;;;;;;10127401;28;94442;-69
2023/10/12 21:42:40;;;;;;;;;;;21.10;66.70;;;;;;10120668;28;94250;-68
2023/10/12 21:47:42;;;;;;;;;;;21.10;66.40;;;;;;10126521;28;93466;-68
2023/10/12 21:52:45;;;;;;;;;;;21.10;66.20;;;;;;10126725;28;92676;-69
2023/10/12 21:57:47;;;;;;;;;;;21.10;65.70;;;;;;10128432;28;93398;-68
2023/10/12 22:02:54;;;;;;;;;;;21.00;65.70;;;;;;10123579;28;94542;-68
2023/10/12 22:07:57;;;;;;;;;;;21.00;65.40;;;;;;10142118;28;94016;-68
2023/10/12 22:13:05;;;;;;;;;;;21.00;65.20;;;;;;10116396;28;93478;-69
2023/10/12 22:18:07;;;;;;;;;;;21.00;65.00;;;;;;10117821;28;94790;-69
2023/10/12 22:23:10;;;;;;;;;;;21.00;64.70;;;;;;10120201;28;97073;-68
2023/10/12 22:28:14;;;;;;;;;;;21.00;64.60;;;;;;10137202;28;93922;-68
2023/10/12 22:33:18;;;;;;;;;;;21.00;64.50;;;;;;10115626;28;95823;-68
2023/10/12 22:38:21;;;;;;;;;;;21.00;64.30;;;;;;10115082;28;93646;-69
2023/10/12 22:43:23;;;;;;;;;;;21.00;64.30;;;;;;10124359;28;94292;-68
2023/10/12 22:48:24;;;;;;;;;;;21.00;63.90;;;;;;10128139;28;94503;-68
2023/10/12 22:53:29;;;;;;;;;;;21.00;63.90;;;;;;10124704;28;94420;-68
2023/10/12 22:58:31;;;;;;;;;;;20.90;63.70;;;;;;10125224;28;93874;-68
2023/10/12 23:03:33;;;;;;;;;;;20.90;63.70;;;;;;10121182;28;93437;-69
2023/10/12 23:08:35;;;;;;;;;;;20.90;63.60;;;;;;10124600;28;93462;-68
2023/10/12 23:13:39;;;;;;;;;;;20.90;63.10;;;;;;10120337;28;95210;-69
2023/10/12 23:18:41;;;;;;;;;;;20.90;63.20;;;;;;10123023;28;94582;-69
2023/10/12 23:23:43;;;;;;;;;;;20.90;63.10;;;;;;10121524;28;93470;-68
2023/10/12 23:28:47;;;;;;;;;;;20.90;63.00;;;;;;10121737;28;93466;-69
2023/10/12 23:33:53;;;;;;;;;;;20.90;62.80;;;;;;10111312;28;92985;-69
2023/10/12 23:39:12;;;;;;;;;;;20.90;62.60;;;;;;10124599;28;93445;-68
2023/10/12 23:54:36;;;;;;;;;;;21.00;62.00;;;;;;10125538;28;93636;-68
2023/10/12 23:59:37;;;;;;;;;;;21.00;61.80;;;;;;10122277;28;93039;-69
